sensor_id;sensor_type;location;lat;lon;timestamp;pressure;altitude;pressure_sealevel;temperature;humidity
967;BME280;56108;48.730;9.304;2023-07-20T00:00:53;97388.91;;;18.36;72.97
967;BME280;56108;48.730;9.304;2023-07-20T00:03:10;97384.97;;;18.22;74.17
967;BME280;56108;48.730;9.304;2023-07-20T00:05:22;97383.06;;;18.14;74.61
967;BME280;56108;48.730;9.304;2023-07-20T00:07:30;97385.69;;;18.06;72.47
967;BME280;56108;48.730;9.304;2023-07-20T00:09:40;97390.97;;;18.16;69.93
967;BME280;56108;48.730;9.304;2023-07-20T00:11:50;97389.50;;;18.21;69.42
967;BME280;56108;48.730;9.304;2023-07-20T00:13:59;97390.78;;;18.09;69.46
967;BME280;56108;48.730;9.304;2023-07-20T00:16:07;97397.09;;;18.00;68.77
967;BME280;56108;48.730;9.304;2023-07-20T00:18:15;97390.66;;;17.93;68.62
967;BME280;56108;48.730;9.304;2023-07-20T00:20:26;97393.28;;;17.85;67.61
967;BME280;56108;48.730;9.304;2023-07-20T00:22:36;97392.25;;;17.78;67.58
967;BME280;56108;48.730;9.304;2023-07-20T00:24:47;97390.56;;;17.77;68.43
967;BME280;56108;48.730;9.304;2023-07-20T00:26:57;97394.47;;;17.82;66.97
967;BME280;56108;48.730;9.304;2023-07-20T00:29:18;97400.00;;;17.81;66.65
967;BME280;56108;48.730;9.304;2023-07-20T00:31:26;97385.59;;;17.72;66.70
967;BME280;56108;48.730;9.304;2023-07-20T00:33:36;97392.91;;;17.80;64.18
967;BME280;56108;48.730;9.304;2023-07-20T00:35:46;97397.31;;;17.81;64.14
967;BME280;56108;48.730;9.304;2023-07-20T00:37:53;97406.19;;;17.99;61.28
967;BME280;56108;48.730;9.304;2023-07-20T00:40:05;97399.16;;;18.06;61.24
967;BME280;56108;48.730;9.304;2023-07-20T00:42:14;97404.13;;;17.93;61.65
967;BME280;56108;48.730;9.304;2023-07-20T00:44:22;97398.16;;;17.81;62.99
967;BME280;56108;48.730;9.304;2023-07-20T00:46:31;97400.00;;;17.81;63.54
967;BME280;56108;48.730;9.304;2023-07-20T00:48:40;97388.38;;;17.62;64.00
967;BME280;56108;48.730;9.304;2023-07-20T00:50:49;97400.06;;;17.53;64.78
967;BME280;56108;48.730;9.304;2023-07-20T00:52:58;97403.38;;;17.47;65.28
967;BME280;56108;48.730;9.304;2023-07-20T00:55:10;97400.00;;;17.45;64.87
967;BME280;56108;48.730;9.304;2023-07-20T00:57:19;97409.59;;;17.47;64.60
967;BME280;56108;48.730;9.304;2023-07-20T00:59:27;97398.63;;;17.41;65.09
967;BME280;56108;48.730;9.304;2023-07-20T01:01:35;97404.63;;;17.35;65.57
967;BME280;56108;48.730;9.304;2023-07-20T01:03:43;97395.56;;;17.36;66.06
967;BME280;56108;48.730;9.304;2023-07-20T01:06:02;97406.00;;;17.57;64.81
967;BME280;56108;48.730;9.304;2023-07-20T01:08:18;97406.78;;;17.49;66.14
967;BME280;56108;48.730;9.304;2023-07-20T01:10:40;97400.63;;;17.39;67.14
967;BME280;56108;48.730;9.304;2023-07-20T01:12:53;97396.22;;;17.38;68.54
967;BME280;56108;48.730;9.304;2023-07-20T01:15:00;97400.31;;;17.24;70.26
967;BME280;56108;48.730;9.304;2023-07-20T01:17:10;97398.25;;;17.18;71.46
967;BME280;56108;48.730;9.304;2023-07-20T01:19:18;97400.69;;;17.11;72.84
967;BME280;56108;48.730;9.304;2023-07-20T01:21:33;97400.63;;;17.21;71.58
967;BME280;56108;48.730;9.304;2023-07-20T01:24:07;97400.44;;;17.22;70.45
967;BME280;56108;48.730;9.304;2023-07-20T01:26:40;97406.22;;;17.28;71.04
967;BME280;56108;48.730;9.304;2023-07-20T01:29:17;97407.16;;;17.18;71.04
967;BME280;56108;48.730;9.304;2023-07-20T01:31:32;97406.44;;;17.16;70.79
967;BME280;56108;48.730;9.304;2023-07-20T01:33:41;97402.69;;;17.09;70.83
967;BME280;56108;48.730;9.304;2023-07-20T01:35:53;97407.00;;;17.02;71.63
967;BME280;56108;48.730;9.304;2023-07-20T01:38:03;97404.75;;;16.98;71.73
967;BME280;56108;48.730;9.304;2023-07-20T01:40:10;97390.66;;;16.86;72.79
967;BME280;56108;48.730;9.304;2023-07-20T01:42:18;97401.50;;;16.76;73.14
967;BME280;56108;48.730;9.304;2023-07-20T01:44:27;97399.25;;;16.72;73.50
967;BME280;56108;48.730;9.304;2023-07-20T01:46:38;97397.13;;;16.65;74.16
967;BME280;56108;48.730;9.304;2023-07-20T01:48:46;97395.28;;;16.66;74.57
967;BME280;56108;48.730;9.304;2023-07-20T01:50:55;97389.25;;;16.54;76.49
967;BME280;56108;48.730;9.304;2023-07-20T01:53:03;97387.88;;;16.50;77.04
967;BME280;56108;48.730;9.304;2023-07-20T01:55:11;97393.97;;;16.42;78.44
967;BME280;56108;48.730;9.304;2023-07-20T01:57:22;97391.28;;;16.42;77.43
967;BME280;56108;48.730;9.304;2023-07-20T01:59:30;97394.63;;;16.54;76.21
967;BME280;56108;48.730;9.304;2023-07-20T02:01:41;97392.88;;;16.63;74.78
967;BME280;56108;48.730;9.304;2023-07-20T02:03:49;97390.81;;;16.57;75.91
967;BME280;56108;48.730;9.304;2023-07-20T02:05:57;97390.00;;;16.47;75.91
967;BME280;56108;48.730;9.304;2023-07-20T02:08:05;97395.66;;;16.43;76.48
967;BME280;56108;48.730;9.304;2023-07-20T02:10:15;97399.47;;;16.51;76.66
967;BME280;56108;48.730;9.304;2023-07-20T02:12:24;97391.03;;;16.63;76.04
967;BME280;56108;48.730;9.304;2023-07-20T02:14:32;97397.91;;;16.48;75.83
967;BME280;56108;48.730;9.304;2023-07-20T02:16:43;97403.72;;;16.43;76.04
967;BME280;56108;48.730;9.304;2023-07-20T02:18:53;97407.25;;;16.44;76.93
967;BME280;56108;48.730;9.304;2023-07-20T02:21:02;97397.28;;;16.27;77.90
967;BME280;56108;48.730;9.304;2023-07-20T02:23:10;97400.97;;;16.26;78.42
967;BME280;56108;48.730;9.304;2023-07-20T02:25:18;97401.84;;;16.07;79.90
967;BME280;56108;48.730;9.304;2023-07-20T02:27:28;97397.66;;;16.04;79.92
967;BME280;56108;48.730;9.304;2023-07-20T02:29:36;97400.59;;;16.01;80.99
967;BME280;56108;48.730;9.304;2023-07-20T02:31:46;97399.50;;;15.94;81.10
967;BME280;56108;48.730;9.304;2023-07-20T02:33:55;97396.84;;;15.84;82.18
967;BME280;56108;48.730;9.304;2023-07-20T02:36:05;97399.53;;;15.84;82.77
967;BME280;56108;48.730;9.304;2023-07-20T02:38:13;97398.69;;;15.74;83.47
967;BME280;56108;48.730;9.304;2023-07-20T02:40:21;97390.78;;;15.82;82.81
967;BME280;56108;48.730;9.304;2023-07-20T02:42:26;97401.09;;;15.87;82.87
967;BME280;56108;48.730;9.304;2023-07-20T02:44:34;97402.06;;;15.76;83.55
967;BME280;56108;48.730;9.304;2023-07-20T02:46:45;97403.22;;;15.64;83.50
967;BME280;56108;48.730;9.304;2023-07-20T02:48:54;97408.97;;;15.59;84.50
967;BME280;56108;48.730;9.304;2023-07-20T02:51:02;97409.97;;;15.58;85.28
967;BME280;56108;48.730;9.304;2023-07-20T02:53:15;97413.09;;;15.63;87.71
967;BME280;56108;48.730;9.304;2023-07-20T02:55:23;97423.09;;;15.52;87.33
967;BME280;56108;48.730;9.304;2023-07-20T02:57:31;97419.69;;;15.50;87.68
967;BME280;56108;48.730;9.304;2023-07-20T02:59:40;97421.13;;;15.44;88.10
967;BME280;56108;48.730;9.304;2023-07-20T03:01:50;97421.53;;;15.49;86.56
967;BME280;56108;48.730;9.304;2023-07-20T03:03:56;97415.59;;;15.55;87.84
967;BME280;56108;48.730;9.304;2023-07-20T03:06:06;97426.38;;;15.46;88.80
967;BME280;56108;48.730;9.304;2023-07-20T03:08:14;97422.81;;;15.45;87.68
967;BME280;56108;48.730;9.304;2023-07-20T03:10:24;97430.47;;;15.40;88.31
967;BME280;56108;48.730;9.304;2023-07-20T03:12:33;97425.94;;;15.31;90.20
967;BME280;56108;48.730;9.304;2023-07-20T03:14:42;97422.69;;;15.37;89.06
967;BME280;56108;48.730;9.304;2023-07-20T03:16:53;97425.19;;;15.29;90.14
967;BME280;56108;48.730;9.304;2023-07-20T03:19:01;97423.09;;;15.23;90.34
967;BME280;56108;48.730;9.304;2023-07-20T03:21:10;97410.94;;;15.19;92.03
967;BME280;56108;48.730;9.304;2023-07-20T03:23:16;97426.63;;;15.23;91.02
967;BME280;56108;48.730;9.304;2023-07-20T03:25:24;97425.91;;;15.21;90.66
967;BME280;56108;48.730;9.304;2023-07-20T03:27:35;97426.91;;;15.30;90.10
967;BME280;56108;48.730;9.304;2023-07-20T03:29:47;97424.66;;;15.35;90.22
967;BME280;56108;48.730;9.304;2023-07-20T03:31:58;97428.03;;;15.37;91.37
967;BME280;56108;48.730;9.304;2023-07-20T03:34:08;97425.50;;;15.35;91.22
967;BME280;56108;48.730;9.304;2023-07-20T03:36:20;97432.13;;;15.31;91.05
967;BME280;56108;48.730;9.304;2023-07-20T03:38:29;97437.50;;;15.41;91.98
967;BME280;56108;48.730;9.304;2023-07-20T03:40:37;97445.53;;;15.60;90.57
967;BME280;56108;48.730;9.304;2023-07-20T03:42:46;97446.41;;;15.51;88.39
967;BME280;56108;48.730;9.304;2023-07-20T03:44:54;97442.00;;;15.50;88.42
967;BME280;56108;48.730;9.304;2023-07-20T03:47:06;97444.25;;;15.55;87.57
967;BME280;56108;48.730;9.304;2023-07-20T03:49:14;97448.09;;;15.52;87.64
967;BME280;56108;48.730;9.304;2023-07-20T03:51:22;97446.25;;;15.53;88.86
967;BME280;56108;48.730;9.304;2023-07-20T03:53:31;97440.31;;;15.49;89.88
967;BME280;56108;48.730;9.304;2023-07-20T03:55:40;97444.00;;;15.48;88.91
967;BME280;56108;48.730;9.304;2023-07-20T03:57:51;97445.84;;;15.57;88.38
967;BME280;56108;48.730;9.304;2023-07-20T03:59:59;97440.63;;;15.65;89.88
967;BME280;56108;48.730;9.304;2023-07-20T04:02:19;97448.97;;;15.82;88.66
967;BME280;56108;48.730;9.304;2023-07-20T04:04:28;97446.41;;;15.90;86.39
967;BME280;56108;48.730;9.304;2023-07-20T04:06:36;97449.09;;;15.90;86.86
967;BME280;56108;48.730;9.304;2023-07-20T04:08:46;97452.88;;;15.97;88.29
967;BME280;56108;48.730;9.304;2023-07-20T04:10:54;97446.66;;;16.06;86.85
967;BME280;56108;48.730;9.304;2023-07-20T04:13:03;97450.06;;;16.08;87.86
967;BME280;56108;48.730;9.304;2023-07-20T04:15:11;97452.25;;;16.23;87.38
967;BME280;56108;48.730;9.304;2023-07-20T04:17:22;97450.28;;;16.34;86.12
967;BME280;56108;48.730;9.304;2023-07-20T04:19:31;97455.06;;;16.40;84.64
967;BME280;56108;48.730;9.304;2023-07-20T04:21:40;97454.44;;;16.93;81.86
967;BME280;56108;48.730;9.304;2023-07-20T04:23:48;97465.56;;;17.26;79.80
967;BME280;56108;48.730;9.304;2023-07-20T04:25:56;97468.63;;;17.77;76.45
967;BME280;56108;48.730;9.304;2023-07-20T04:28:05;97481.59;;;19.03;69.64
967;BME280;56108;48.730;9.304;2023-07-20T04:30:22;97495.00;;;20.12;61.87
967;BME280;56108;48.730;9.304;2023-07-20T04:32:32;97503.41;;;21.22;57.29
967;BME280;56108;48.730;9.304;2023-07-20T04:34:42;97506.16;;;22.07;53.53
967;BME280;56108;48.730;9.304;2023-07-20T04:36:51;97510.53;;;22.54;51.51
967;BME280;56108;48.730;9.304;2023-07-20T04:39:03;97523.34;;;23.27;48.50
967;BME280;56108;48.730;9.304;2023-07-20T04:41:33;97533.97;;;24.09;47.67
967;BME280;56108;48.730;9.304;2023-07-20T04:43:43;97556.75;;;24.72;44.89
967;BME280;56108;48.730;9.304;2023-07-20T04:45:56;97548.66;;;25.07;44.44
967;BME280;56108;48.730;9.304;2023-07-20T04:48:10;97561.72;;;26.01;41.99
967;BME280;56108;48.730;9.304;2023-07-20T04:50:19;97554.88;;;25.29;41.83
967;BME280;56108;48.730;9.304;2023-07-20T04:52:31;97559.81;;;25.95;41.35
967;BME280;56108;48.730;9.304;2023-07-20T04:54:49;97570.69;;;26.89;39.85
967;BME280;56108;48.730;9.304;2023-07-20T04:56:58;97572.75;;;27.47;37.60
967;BME280;56108;48.730;9.304;2023-07-20T04:59:07;97573.69;;;27.86;37.37
967;BME280;56108;48.730;9.304;2023-07-20T05:01:15;97571.34;;;27.11;38.52
967;BME280;56108;48.730;9.304;2023-07-20T05:03:26;97568.25;;;26.13;39.81
967;BME280;56108;48.730;9.304;2023-07-20T05:05:34;97548.00;;;24.77;43.37
967;BME280;56108;48.730;9.304;2023-07-20T05:07:44;97548.28;;;24.18;44.85
967;BME280;56108;48.730;9.304;2023-07-20T05:09:53;97549.63;;;23.86;46.14
967;BME280;56108;48.730;9.304;2023-07-20T05:12:02;97542.31;;;23.57;47.11
967;BME280;56108;48.730;9.304;2023-07-20T05:14:10;97530.47;;;22.99;47.21
967;BME280;56108;48.730;9.304;2023-07-20T05:16:19;97522.59;;;22.05;49.76
967;BME280;56108;48.730;9.304;2023-07-20T05:18:30;97516.16;;;21.83;53.12
967;BME280;56108;48.730;9.304;2023-07-20T05:20:38;97518.38;;;21.80;52.29
967;BME280;56108;48.730;9.304;2023-07-20T05:22:48;97509.00;;;21.59;53.72
967;BME280;56108;48.730;9.304;2023-07-20T05:24:58;97502.00;;;21.73;54.41
967;BME280;56108;48.730;9.304;2023-07-20T05:27:06;97500.78;;;21.76;53.84
967;BME280;56108;48.730;9.304;2023-07-20T05:29:14;97504.41;;;21.68;53.53
967;BME280;56108;48.730;9.304;2023-07-20T05:31:22;97504.28;;;21.84;54.15
967;BME280;56108;48.730;9.304;2023-07-20T05:33:34;97502.97;;;22.03;53.84
967;BME280;56108;48.730;9.304;2023-07-20T05:35:41;97495.22;;;21.77;56.79
967;BME280;56108;48.730;9.304;2023-07-20T05:37:49;97499.00;;;21.91;54.30
967;BME280;56108;48.730;9.304;2023-07-20T05:39:57;97501.63;;;21.76;55.51
967;BME280;56108;48.730;9.304;2023-07-20T05:42:05;97495.97;;;21.63;56.40
967;BME280;56108;48.730;9.304;2023-07-20T05:44:13;97508.47;;;21.64;54.39
967;BME280;56108;48.730;9.304;2023-07-20T05:46:21;97495.78;;;21.33;55.72
967;BME280;56108;48.730;9.304;2023-07-20T05:48:37;97498.63;;;21.40;57.44
967;BME280;56108;48.730;9.304;2023-07-20T05:50:46;97493.03;;;21.42;58.19
967;BME280;56108;48.730;9.304;2023-07-20T05:52:54;97497.78;;;21.40;56.64
967;BME280;56108;48.730;9.304;2023-07-20T05:55:03;97502.22;;;21.24;57.45
967;BME280;56108;48.730;9.304;2023-07-20T05:57:11;97492.41;;;21.31;56.78
967;BME280;56108;48.730;9.304;2023-07-20T05:59:19;97498.88;;;21.14;57.84
967;BME280;56108;48.730;9.304;2023-07-20T06:01:29;97499.94;;;21.05;58.93
967;BME280;56108;48.730;9.304;2023-07-20T06:03:40;97498.78;;;21.47;56.67
967;BME280;56108;48.730;9.304;2023-07-20T06:05:48;97504.63;;;21.58;55.97
967;BME280;56108;48.730;9.304;2023-07-20T06:07:56;97510.75;;;21.52;56.05
967;BME280;56108;48.730;9.304;2023-07-20T06:10:06;97511.69;;;21.68;56.84
967;BME280;56108;48.730;9.304;2023-07-20T06:12:14;97503.16;;;21.79;55.65
967;BME280;56108;48.730;9.304;2023-07-20T06:14:22;97507.81;;;21.93;55.83
967;BME280;56108;48.730;9.304;2023-07-20T06:16:30;97508.16;;;21.90;56.93
967;BME280;56108;48.730;9.304;2023-07-20T06:18:41;97515.00;;;22.01;55.39
967;BME280;56108;48.730;9.304;2023-07-20T06:20:50;97527.50;;;22.10;53.96
967;BME280;56108;48.730;9.304;2023-07-20T06:22:58;97523.78;;;22.03;53.79
967;BME280;56108;48.730;9.304;2023-07-20T06:25:08;97516.47;;;21.88;55.34
967;BME280;56108;48.730;9.304;2023-07-20T06:27:16;97517.41;;;21.73;55.45
967;BME280;56108;48.730;9.304;2023-07-20T06:29:24;97510.88;;;21.59;55.85
967;BME280;56108;48.730;9.304;2023-07-20T06:31:32;97514.94;;;21.63;55.74
967;BME280;56108;48.730;9.304;2023-07-20T06:33:45;97510.44;;;21.78;55.34
967;BME280;56108;48.730;9.304;2023-07-20T06:35:53;97509.31;;;21.65;55.37
967;BME280;56108;48.730;9.304;2023-07-20T06:38:01;97502.25;;;21.55;56.42
967;BME280;56108;48.730;9.304;2023-07-20T06:40:13;97501.19;;;21.65;56.97
967;BME280;56108;48.730;9.304;2023-07-20T06:42:24;97499.25;;;22.04;56.50
967;BME280;56108;48.730;9.304;2023-07-20T06:44:51;97500.91;;;22.13;55.12
967;BME280;56108;48.730;9.304;2023-07-20T06:46:59;97510.38;;;22.32;53.24
967;BME280;56108;48.730;9.304;2023-07-20T06:49:24;97503.16;;;22.62;54.01
967;BME280;56108;48.730;9.304;2023-07-20T06:51:32;97516.06;;;22.98;51.88
967;BME280;56108;48.730;9.304;2023-07-20T06:53:41;97525.19;;;23.41;52.83
967;BME280;56108;48.730;9.304;2023-07-20T06:55:47;97532.66;;;23.69;49.65
967;BME280;56108;48.730;9.304;2023-07-20T06:57:55;97531.63;;;24.06;49.12
967;BME280;56108;48.730;9.304;2023-07-20T07:00:06;97540.75;;;24.20;48.66
967;BME280;56108;48.730;9.304;2023-07-20T07:02:16;97539.44;;;24.80;46.09
967;BME280;56108;48.730;9.304;2023-07-20T07:04:28;97544.25;;;25.41;45.57
967;BME280;56108;48.730;9.304;2023-07-20T07:06:37;97552.25;;;24.86;44.34
967;BME280;56108;48.730;9.304;2023-07-20T07:08:45;97551.78;;;24.55;45.94
967;BME280;56108;48.730;9.304;2023-07-20T07:10:53;97541.13;;;25.09;45.54
967;BME280;56108;48.730;9.304;2023-07-20T07:12:59;97545.84;;;24.72;45.88
967;BME280;56108;48.730;9.304;2023-07-20T07:15:10;97542.34;;;24.51;46.52
967;BME280;56108;48.730;9.304;2023-07-20T07:17:18;97542.53;;;24.49;46.13
967;BME280;56108;48.730;9.304;2023-07-20T07:19:29;97530.19;;;24.32;47.21
967;BME280;56108;48.730;9.304;2023-07-20T07:21:40;97527.56;;;24.60;47.03
967;BME280;56108;48.730;9.304;2023-07-20T07:23:48;97529.94;;;24.48;48.42
967;BME280;56108;48.730;9.304;2023-07-20T07:25:58;97526.47;;;24.82;47.47
967;BME280;56108;48.730;9.304;2023-07-20T07:28:06;97532.50;;;24.78;45.63
967;BME280;56108;48.730;9.304;2023-07-20T07:30:15;97524.44;;;24.63;47.27
967;BME280;56108;48.730;9.304;2023-07-20T07:32:24;97525.91;;;24.01;47.08
967;BME280;56108;48.730;9.304;2023-07-20T07:34:35;97525.06;;;24.22;48.42
967;BME280;56108;48.730;9.304;2023-07-20T07:36:43;97519.84;;;24.42;48.87
967;BME280;56108;48.730;9.304;2023-07-20T07:38:52;97519.84;;;25.26;47.27
967;BME280;56108;48.730;9.304;2023-07-20T07:41:03;97534.84;;;25.85;44.97
967;BME280;56108;48.730;9.304;2023-07-20T07:43:11;97544.28;;;27.61;40.84
967;BME280;56108;48.730;9.304;2023-07-20T07:45:19;97564.41;;;28.95;37.00
967;BME280;56108;48.730;9.304;2023-07-20T07:47:25;97569.06;;;30.41;35.18
967;BME280;56108;48.730;9.304;2023-07-20T07:49:36;97574.28;;;31.26;33.78
967;BME280;56108;48.730;9.304;2023-07-20T07:51:44;97593.53;;;32.99;30.88
967;BME280;56108;48.730;9.304;2023-07-20T07:53:54;97589.19;;;31.07;31.74
967;BME280;56108;48.730;9.304;2023-07-20T07:56:04;97567.09;;;29.63;34.60
967;BME280;56108;48.730;9.304;2023-07-20T07:58:27;97557.16;;;28.05;38.84
967;BME280;56108;48.730;9.304;2023-07-20T08:00:39;97546.03;;;27.42;39.22
967;BME280;56108;48.730;9.304;2023-07-20T08:02:50;97560.88;;;27.79;37.17
967;BME280;56108;48.730;9.304;2023-07-20T08:05:02;97560.38;;;29.59;35.49
967;BME280;56108;48.730;9.304;2023-07-20T08:07:10;97575.16;;;30.85;32.88
967;BME280;56108;48.730;9.304;2023-07-20T08:09:18;97565.63;;;30.76;33.84
967;BME280;56108;48.730;9.304;2023-07-20T08:11:26;97571.16;;;31.23;32.81
967;BME280;56108;48.730;9.304;2023-07-20T08:13:37;97579.88;;;30.96;32.38
967;BME280;56108;48.730;9.304;2023-07-20T08:15:49;97570.47;;;30.32;33.91
967;BME280;56108;48.730;9.304;2023-07-20T08:17:59;97563.50;;;29.81;33.99
967;BME280;56108;48.730;9.304;2023-07-20T08:20:12;97544.69;;;28.79;36.67
967;BME280;56108;48.730;9.304;2023-07-20T08:22:22;97540.19;;;27.90;38.80
967;BME280;56108;48.730;9.304;2023-07-20T08:24:31;97544.25;;;28.19;36.84
967;BME280;56108;48.730;9.304;2023-07-20T08:26:39;97533.47;;;29.49;37.38
967;BME280;56108;48.730;9.304;2023-07-20T08:28:49;97546.50;;;29.90;34.77
967;BME280;56108;48.730;9.304;2023-07-20T08:30:57;97547.75;;;28.90;35.31
967;BME280;56108;48.730;9.304;2023-07-20T08:33:06;97540.47;;;28.14;37.68
967;BME280;56108;48.730;9.304;2023-07-20T08:35:20;97527.63;;;27.11;39.63
967;BME280;56108;48.730;9.304;2023-07-20T08:37:30;97530.31;;;27.31;39.33
967;BME280;56108;48.730;9.304;2023-07-20T08:39:38;97524.66;;;26.93;39.16
967;BME280;56108;48.730;9.304;2023-07-20T08:41:46;97520.50;;;26.64;39.67
967;BME280;56108;48.730;9.304;2023-07-20T08:43:57;97519.63;;;26.83;40.78
967;BME280;56108;48.730;9.304;2023-07-20T08:46:06;97520.91;;;26.74;39.28
967;BME280;56108;48.730;9.304;2023-07-20T08:48:12;97520.06;;;26.67;40.41
967;BME280;56108;48.730;9.304;2023-07-20T08:50:25;97526.59;;;26.59;38.79
967;BME280;56108;48.730;9.304;2023-07-20T08:52:34;97519.84;;;26.62;39.23
967;BME280;56108;48.730;9.304;2023-07-20T08:54:43;97511.44;;;26.96;39.39
967;BME280;56108;48.730;9.304;2023-07-20T08:56:51;97520.47;;;26.90;38.73
967;BME280;56108;48.730;9.304;2023-07-20T08:59:01;97515.47;;;26.74;40.09
967;BME280;56108;48.730;9.304;2023-07-20T09:01:11;97520.22;;;26.12;39.87
967;BME280;56108;48.730;9.304;2023-07-20T09:03:19;97510.44;;;26.58;39.50
967;BME280;56108;48.730;9.304;2023-07-20T09:05:30;97511.03;;;26.46;40.04
967;BME280;56108;48.730;9.304;2023-07-20T09:07:41;97510.53;;;26.10;39.58
967;BME280;56108;48.730;9.304;2023-07-20T09:09:47;97515.53;;;25.86;40.79
967;BME280;56108;48.730;9.304;2023-07-20T09:11:55;97509.38;;;25.71;41.01
967;BME280;56108;48.730;9.304;2023-07-20T09:14:04;97511.13;;;25.37;40.61
967;BME280;56108;48.730;9.304;2023-07-20T09:16:13;97504.19;;;25.35;41.33
967;BME280;56108;48.730;9.304;2023-07-20T09:18:25;97517.91;;;27.28;38.06
967;BME280;56108;48.730;9.304;2023-07-20T09:20:36;97524.25;;;29.25;34.24
967;BME280;56108;48.730;9.304;2023-07-20T09:22:44;97539.53;;;30.06;31.77
967;BME280;56108;48.730;9.304;2023-07-20T09:24:54;97545.03;;;31.72;30.69
967;BME280;56108;48.730;9.304;2023-07-20T09:27:04;97551.47;;;31.89;28.87
967;BME280;56108;48.730;9.304;2023-07-20T09:29:12;97559.47;;;32.43;27.53
967;BME280;56108;48.730;9.304;2023-07-20T09:31:21;97548.66;;;33.20;27.29
967;BME280;56108;48.730;9.304;2023-07-20T09:33:32;97546.13;;;33.74;26.84
967;BME280;56108;48.730;9.304;2023-07-20T09:35:43;97515.13;;;32.61;27.31
967;BME280;56108;48.730;9.304;2023-07-20T09:38:00;97507.47;;;32.35;27.73
967;BME280;56108;48.730;9.304;2023-07-20T09:40:14;97496.78;;;30.94;29.77
967;BME280;56108;48.730;9.304;2023-07-20T09:42:23;97497.06;;;29.79;31.43
967;BME280;56108;48.730;9.304;2023-07-20T09:44:35;97493.81;;;28.65;33.01
967;BME280;56108;48.730;9.304;2023-07-20T09:46:48;97484.91;;;29.20;32.98
967;BME280;56108;48.730;9.304;2023-07-20T09:48:59;97495.34;;;29.96;31.38
967;BME280;56108;48.730;9.304;2023-07-20T09:51:13;97489.03;;;31.90;29.95
967;BME280;56108;48.730;9.304;2023-07-20T09:53:21;97496.59;;;33.07;27.82
967;BME280;56108;48.730;9.304;2023-07-20T09:55:29;97485.06;;;33.49;28.22
967;BME280;56108;48.730;9.304;2023-07-20T09:57:38;97491.47;;;33.76;26.51
967;BME280;56108;48.730;9.304;2023-07-20T09:59:46;97485.34;;;34.18;25.59
967;BME280;56108;48.730;9.304;2023-07-20T10:01:57;97486.81;;;32.20;28.45
967;BME280;56108;48.730;9.304;2023-07-20T10:04:08;97487.16;;;31.67;29.13
967;BME280;56108;48.730;9.304;2023-07-20T10:06:23;97466.66;;;31.23;30.16
967;BME280;56108;48.730;9.304;2023-07-20T10:08:32;97472.19;;;29.92;30.98
967;BME280;56108;48.730;9.304;2023-07-20T10:10:49;97471.31;;;28.81;32.61
967;BME280;56108;48.730;9.304;2023-07-20T10:12:57;97458.97;;;28.97;32.75
967;BME280;56108;48.730;9.304;2023-07-20T10:15:11;97470.00;;;30.54;31.75
967;BME280;56108;48.730;9.304;2023-07-20T10:17:17;97456.59;;;31.40;30.70
967;BME280;56108;48.730;9.304;2023-07-20T10:19:30;97470.84;;;31.25;29.92
967;BME280;56108;48.730;9.304;2023-07-20T10:21:48;97465.88;;;31.62;28.46
967;BME280;56108;48.730;9.304;2023-07-20T10:24:03;97457.78;;;31.84;27.94
967;BME280;56108;48.730;9.304;2023-07-20T10:26:13;97455.56;;;31.29;28.01
967;BME280;56108;48.730;9.304;2023-07-20T10:28:22;97449.56;;;31.73;29.82
967;BME280;56108;48.730;9.304;2023-07-20T10:30:36;97453.22;;;32.18;29.43
967;BME280;56108;48.730;9.304;2023-07-20T10:32:45;97453.94;;;32.14;27.93
967;BME280;56108;48.730;9.304;2023-07-20T10:34:56;97439.88;;;32.78;28.45
967;BME280;56108;48.730;9.304;2023-07-20T10:37:06;97449.38;;;32.19;27.25
967;BME280;56108;48.730;9.304;2023-07-20T10:39:22;97444.66;;;32.03;28.64
967;BME280;56108;48.730;9.304;2023-07-20T10:41:34;97438.97;;;31.93;27.10
967;BME280;56108;48.730;9.304;2023-07-20T10:43:43;97433.19;;;31.66;29.09
967;BME280;56108;48.730;9.304;2023-07-20T10:45:52;97437.78;;;31.60;28.44
967;BME280;56108;48.730;9.304;2023-07-20T10:48:03;97435.25;;;31.07;28.86
967;BME280;56108;48.730;9.304;2023-07-20T10:50:09;97432.13;;;31.67;29.25
967;BME280;56108;48.730;9.304;2023-07-20T10:52:20;97422.84;;;30.81;28.81
967;BME280;56108;48.730;9.304;2023-07-20T10:54:35;97424.94;;;29.60;30.08
967;BME280;56108;48.730;9.304;2023-07-20T10:56:56;97415.44;;;28.46;32.62
967;BME280;56108;48.730;9.304;2023-07-20T10:59:18;97409.41;;;28.37;32.79
967;BME280;56108;48.730;9.304;2023-07-20T11:01:31;97421.72;;;27.58;32.80
967;BME280;56108;48.730;9.304;2023-07-20T11:03:49;97410.25;;;28.06;33.78
967;BME280;56108;48.730;9.304;2023-07-20T11:06:30;97412.88;;;28.69;31.71
967;BME280;56108;48.730;9.304;2023-07-20T11:09:02;97416.09;;;29.88;31.27
967;BME280;56108;48.730;9.304;2023-07-20T11:11:25;97416.41;;;30.10;28.95
967;BME280;56108;48.730;9.304;2023-07-20T11:13:58;97418.56;;;30.08;29.60
967;BME280;56108;48.730;9.304;2023-07-20T11:16:07;97409.91;;;28.96;30.85
967;BME280;56108;48.730;9.304;2023-07-20T11:18:16;97401.22;;;28.05;32.62
967;BME280;56108;48.730;9.304;2023-07-20T11:20:25;97404.34;;;27.39;34.26
967;BME280;56108;48.730;9.304;2023-07-20T11:22:35;97398.53;;;26.31;36.03
967;BME280;56108;48.730;9.304;2023-07-20T11:24:46;97408.25;;;27.05;34.94
967;BME280;56108;48.730;9.304;2023-07-20T11:26:54;97406.97;;;27.14;33.95
967;BME280;56108;48.730;9.304;2023-07-20T11:29:02;97401.38;;;27.47;33.58
967;BME280;56108;48.730;9.304;2023-07-20T11:31:29;97399.41;;;27.16;33.18
967;BME280;56108;48.730;9.304;2023-07-20T11:33:38;97400.44;;;27.22;34.65
967;BME280;56108;48.730;9.304;2023-07-20T11:35:48;97397.22;;;27.76;33.94
967;BME280;56108;48.730;9.304;2023-07-20T11:37:57;97397.31;;;28.20;31.99
967;BME280;56108;48.730;9.304;2023-07-20T11:40:07;97390.88;;;28.32;32.58
967;BME280;56108;48.730;9.304;2023-07-20T11:42:19;97396.09;;;28.16;34.52
967;BME280;56108;48.730;9.304;2023-07-20T11:44:30;97392.66;;;27.95;32.67
967;BME280;56108;48.730;9.304;2023-07-20T11:46:39;97395.53;;;27.75;33.24
967;BME280;56108;48.730;9.304;2023-07-20T11:48:47;97386.84;;;27.85;33.41
967;BME280;56108;48.730;9.304;2023-07-20T11:50:55;97392.66;;;27.95;30.65